Portada
METAR-TAF:

METAR-TAF

Aeroports :

Jaipur, Índia

latitud: 26-49N, longitud: 075-48E, altitud: 385 m

Observació

L'informe es va fer fa 10 minuts, a les 04:30 UTC
Vent 4 kt del Est/Nord-Est
Temperatura 28°C
Humitat 40%
Pressió 1017 hPa
Visibilitat: 4000 m
Escasses núvols a una alçada de 10000 ft
calitja

METAR: VIJP 210430Z 07004KT 4000 HZ FEW100 28/13 Q1017 NOSIG

Hora: 10:10 (04:40 UTC)

Pronòstic

L'informe es va fer fa 2 hores i 40 minuts, a les 02:00 UTC
Pronòstic vàlid del 21 a les 03 UTC al 21 a les 12 UTC
Vent 2 kt amb direcció variable
Visibilitat: 2000 m
Escasses núvols a una alçada de 10000 ft
fum
Evolucionant progressivament
l' 21 a les 04 UTC al 21 a les 06 UTC
Vent 6 kt del Est/Nord-Est
Visibilitat: 3000 m
Escasses núvols a una alçada de 3500 ft
Núvols disperses a una alçada de 10000 ft
calitja

TAF: VIJP 210200Z 2103/2112 VRB02KT 2000 FU FEW100 BECMG 2104/2106 07006KT 3000 HZ FEW035 SCT100

Observacions i pronòstics meteorològics de més de 4000 aeroports (METAR i TAF).

Les estacions disponibles són els punts grocs i vermells al mapa.

Posi el ratolí al punt desitjat per veure el nom de l'estació.

Feu clic per veure les observacions i els pronòstics meteorològics.

Per canviar el mapa: feu clic els botons verds amb una creu de color negre per apropar; al botó verd amb un guió per allunyar la imatge; o en les fletxes verdes per a mapes adjacents.


METAR-TAF: